createdAt,value
2022-11-16T00:01:14.621Z,99764.00
2022-11-16T00:03:44.233Z,99769.41
2022-11-16T00:06:13.411Z,99778.28
2022-11-16T00:08:43.228Z,99769.66
2022-11-16T00:11:12.913Z,99772.09
2022-11-16T00:13:41.781Z,99754.78
2022-11-16T00:16:14.206Z,99764.53
2022-11-16T00:18:43.317Z,99772.34
2022-11-16T00:21:11.800Z,99775.31
2022-11-16T00:23:39.793Z,99782.31
2022-11-16T00:26:09.374Z,99784.22
2022-11-16T00:28:37.366Z,99783.41
2022-11-16T00:31:07.556Z,99781.78
2022-11-16T00:33:35.717Z,99778.00
2022-11-16T00:36:06.517Z,99769.09
2022-11-16T00:38:35.323Z,99761.28
2022-11-16T00:41:03.354Z,99766.41
2022-11-16T00:43:31.301Z,99742.16
2022-11-16T00:45:59.127Z,99734.88
2022-11-16T00:48:27.270Z,99734.06
2022-11-16T00:50:55.010Z,99771.00
2022-11-16T00:53:24.059Z,99771.00
2022-11-16T00:55:51.778Z,99772.63
2022-11-16T00:58:19.521Z,99762.34
2022-11-16T01:00:47.221Z,99754.00
2022-11-16T01:03:15.069Z,99755.09
2022-11-16T01:05:42.809Z,99749.69
2022-11-16T01:08:10.905Z,99762.09
2022-11-16T01:10:42.064Z,99744.28
2022-11-16T01:13:10.381Z,99727.84
2022-11-16T01:15:38.067Z,99740.25
2022-11-16T01:18:06.134Z,99742.97
2022-11-16T01:20:33.877Z,99737.56
2022-11-16T01:23:01.506Z,99714.06
2022-11-16T01:25:29.195Z,99722.47
2022-11-16T01:27:58.212Z,99734.88
2022-11-16T01:30:25.932Z,99731.38
2022-11-16T01:32:53.569Z,99725.72
2022-11-16T01:35:21.451Z,99726.78
2022-11-16T01:37:49.103Z,99721.38
2022-11-16T01:40:16.797Z,99717.63
2022-11-16T01:42:44.455Z,99725.72
2022-11-16T01:45:28.654Z,99719.50
2022-11-16T01:47:56.533Z,99723.81
2022-11-16T01:50:24.454Z,99726.53
2022-11-16T01:52:55.354Z,99727.34
2022-11-16T01:55:24.216Z,99714.63
2022-11-16T01:57:52.299Z,99719.78
2022-11-16T02:00:22.000Z,99721.38
2022-11-16T02:02:49.804Z,99723.00
2022-11-16T02:05:20.133Z,99706.03
2022-11-16T02:08:31.267Z,99705.22
2022-11-16T02:11:14.601Z,99705.22
2022-11-16T02:13:51.507Z,99707.09
2022-11-16T02:16:35.007Z,99701.72
2022-11-16T02:19:20.522Z,99705.22
2022-11-16T02:22:00.217Z,99706.03
2022-11-16T02:24:50.285Z,99705.22
2022-11-16T02:27:51.131Z,99693.63
2022-11-16T02:30:22.076Z,99692.53
2022-11-16T02:32:55.227Z,99698.75
2022-11-16T02:35:26.411Z,99688.22
2022-11-16T02:37:59.502Z,99706.03
2022-11-16T02:40:32.485Z,99699.81
2022-11-16T02:43:05.115Z,99696.31
2022-11-16T02:45:37.027Z,99691.72
2022-11-16T02:48:09.306Z,99703.03
2022-11-16T02:50:39.427Z,99715.19
2022-11-16T02:53:07.194Z,99714.13
2022-11-16T02:55:37.164Z,99713.31
2022-11-16T02:58:07.294Z,99714.94
2022-11-16T03:00:43.551Z,99714.13
2022-11-16T03:03:25.313Z,99716.25
2022-11-16T03:05:59.554Z,99714.38
2022-11-16T03:08:35.083Z,99718.69
2022-11-16T03:11:23.584Z,99724.09
2022-11-16T03:13:52.997Z,99725.16
2022-11-16T03:16:25.332Z,99734.88
2022-11-16T03:18:56.448Z,99730.56
2022-11-16T03:21:28.794Z,99735.69
2022-11-16T03:23:56.743Z,99741.06
2022-11-16T03:26:30.542Z,99745.66
2022-11-16T03:29:02.781Z,99741.06
2022-11-16T03:31:36.994Z,99749.44
2022-11-16T03:34:08.980Z,99749.44
2022-11-16T03:36:40.117Z,99742.97
2022-11-16T03:39:13.561Z,99739.72
2022-11-16T03:41:44.513Z,99742.13
2022-11-16T03:44:15.433Z,99751.31
2022-11-16T03:46:45.371Z,99748.63
2022-11-16T03:49:13.386Z,99760.22
2022-11-16T03:51:41.545Z,99765.88
2022-11-16T03:54:09.221Z,99765.88
2022-11-16T03:56:36.900Z,99773.13
2022-11-16T03:59:04.549Z,99776.91
2022-11-16T04:01:32.589Z,99776.91
2022-11-16T04:04:01.590Z,99776.91
2022-11-16T04:06:47.051Z,99770.97
2022-11-16T04:09:32.201Z,99777.44
2022-11-16T04:12:17.741Z,99785.78
2022-11-16T04:15:03.021Z,99776.88
2022-11-16T04:17:53.601Z,99764.22
2022-11-16T04:20:40.442Z,99773.13
2022-11-16T04:23:30.074Z,99778.78
2022-11-16T04:25:58.245Z,99774.19
2022-11-16T04:28:29.754Z,99763.63
2022-11-16T04:31:17.378Z,99773.63
2022-11-16T04:34:02.763Z,99780.09
2022-11-16T04:36:49.749Z,99786.31
2022-11-16T04:39:17.415Z,99796.28
2022-11-16T04:42:02.416Z,99795.72
2022-11-16T04:44:50.366Z,99796.53
2022-11-16T04:47:17.033Z,99798.41
2022-11-16T04:49:44.725Z,99800.31
2022-11-16T04:52:13.736Z,99790.03
2022-11-16T04:54:41.401Z,99802.44
2022-11-16T04:57:09.047Z,99801.09
2022-11-16T04:59:36.726Z,99812.41
2022-11-16T05:02:10.586Z,99815.13
2022-11-16T05:04:39.216Z,99817.81
2022-11-16T05:07:10.887Z,99816.19
2022-11-16T05:09:43.022Z,99810.25
2022-11-16T05:12:11.301Z,99804.59
2022-11-16T05:14:38.988Z,99805.41
2022-11-16T05:17:06.632Z,99808.34
2022-11-16T05:19:51.806Z,99807.53
2022-11-16T05:22:19.460Z,99806.72
2022-11-16T05:24:48.510Z,99807.53
2022-11-16T05:27:18.006Z,99805.91
2022-11-16T05:29:45.729Z,99790.25
2022-11-16T05:32:14.244Z,99795.13
2022-11-16T05:34:42.228Z,99790.00
2022-11-16T05:37:10.492Z,99804.31
2022-11-16T05:39:38.811Z,99799.97
2022-11-16T05:42:08.394Z,99801.88
2022-11-16T05:44:36.442Z,99810.47
2022-11-16T05:47:04.189Z,99815.59
2022-11-16T05:49:32.003Z,99816.66
2022-11-16T05:51:59.684Z,99831.22
2022-11-16T05:54:27.424Z,99829.59
2022-11-16T05:56:55.928Z,99825.28
2022-11-16T05:59:25.049Z,99836.31
2022-11-16T06:01:52.867Z,99833.88
2022-11-16T06:04:24.801Z,99832.25
2022-11-16T06:06:53.192Z,99834.13
2022-11-16T06:09:20.959Z,99837.91
2022-11-16T06:11:48.685Z,99836.00
2022-11-16T06:14:16.333Z,99832.75
2022-11-16T06:16:45.401Z,99835.72
2022-11-16T06:19:13.049Z,99837.59
2022-11-16T06:21:40.779Z,99841.09
2022-11-16T06:24:09.500Z,99849.44
2022-11-16T06:26:37.714Z,99859.41
2022-11-16T06:29:05.472Z,99849.97
2022-11-16T06:31:33.265Z,99857.22
2022-11-16T06:34:02.247Z,99859.13
2022-11-16T06:36:29.939Z,99864.19
2022-11-16T06:38:59.908Z,99862.06
2022-11-16T06:41:27.648Z,99868.53
2022-11-16T06:43:55.343Z,99866.09
2022-11-16T06:46:24.509Z,99864.47
2022-11-16T06:48:52.154Z,99870.66
2022-11-16T06:51:21.192Z,99883.56
2022-11-16T06:53:48.891Z,99883.03
2022-11-16T06:56:17.338Z,99879.50
2022-11-16T06:58:44.996Z,99874.13
2022-11-16T07:01:13.039Z,99876.25
2022-11-16T07:03:41.189Z,99880.59
2022-11-16T07:06:10.481Z,99877.34
2022-11-16T07:08:39.545Z,99886.22
2022-11-16T07:11:08.926Z,99887.03
2022-11-16T07:13:37.872Z,99898.88
2022-11-16T07:16:06.734Z,99901.00
2022-11-16T07:18:35.395Z,99895.06
2022-11-16T07:21:07.325Z,99902.91
2022-11-16T07:23:35.503Z,99892.63
2022-11-16T07:26:06.809Z,99902.09
2022-11-16T07:28:35.368Z,99905.03
2022-11-16T07:31:03.732Z,99913.13
2022-11-16T07:33:31.558Z,99906.63
2022-11-16T07:36:02.072Z,99912.03
2022-11-16T07:38:29.952Z,99909.34
2022-11-16T07:41:00.811Z,99917.19
2022-11-16T07:43:31.676Z,99915.81
2022-11-16T07:46:28.247Z,99915.56
2022-11-16T07:48:51.640Z,99918.25
2022-11-16T07:51:20.655Z,99926.59
2022-11-16T07:53:48.443Z,99928.75
2022-11-16T07:56:16.158Z,99932.25
2022-11-16T07:58:45.746Z,99928.75
2022-11-16T08:01:15.542Z,99932.75
2022-11-16T08:03:44.818Z,99931.13
2022-11-16T08:06:15.461Z,99943.53
2022-11-16T08:08:43.229Z,99937.34
2022-11-16T08:11:12.920Z,99941.91
2022-11-16T08:13:42.217Z,99939.22
2022-11-16T08:16:14.205Z,99938.16
2022-11-16T08:18:42.766Z,99933.81
2022-11-16T08:21:12.663Z,99945.41
2022-11-16T08:23:41.115Z,99940.84
2022-11-16T08:26:10.309Z,99941.09
2022-11-16T08:28:38.563Z,99941.91
2022-11-16T08:31:11.481Z,99941.91
2022-11-16T08:33:39.368Z,99937.59
2022-11-16T08:36:13.819Z,99941.09
2022-11-16T08:38:42.065Z,99938.16
2022-11-16T08:41:09.823Z,99933.56
2022-11-16T08:43:39.490Z,99938.72
2022-11-16T08:46:07.851Z,99937.34
2022-11-16T08:48:37.552Z,99933.03
2022-11-16T08:51:22.007Z,99944.91
2022-11-16T08:53:50.439Z,99945.16
2022-11-16T08:56:19.384Z,99951.38
2022-11-16T08:58:50.310Z,99950.53
2022-11-16T09:01:21.905Z,99944.09
2022-11-16T09:03:51.241Z,99948.41
2022-11-16T09:06:19.110Z,99946.78
2022-11-16T09:08:47.966Z,99952.19
2022-11-16T09:11:17.778Z,99955.69
2022-11-16T09:13:46.100Z,99953.81
2022-11-16T09:16:16.544Z,99959.47
2022-11-16T09:18:45.594Z,99955.97
2022-11-16T09:21:18.991Z,99955.97
2022-11-16T09:23:47.519Z,99953.00
2022-11-16T09:26:16.564Z,99963.78
2022-11-16T09:28:44.314Z,99958.66
2022-11-16T09:31:11.978Z,99953.81
2022-11-16T09:33:39.721Z,99963.78
2022-11-16T09:36:09.661Z,99964.84
2022-11-16T09:39:13.314Z,99959.78
2022-11-16T09:41:44.733Z,99960.31
2022-11-16T09:44:28.206Z,99960.31
2022-11-16T09:46:58.840Z,99960.31
2022-11-16T09:49:29.919Z,99962.22
2022-11-16T09:52:03.393Z,99966.28
2022-11-16T09:54:36.606Z,99963.13
2022-11-16T09:57:12.251Z,99965.81
2022-11-16T09:59:43.907Z,99967.25
2022-11-16T10:02:21.870Z,99968.81
2022-11-16T10:04:58.162Z,99963.44
2022-11-16T10:07:32.724Z,99967.75
2022-11-16T10:10:01.867Z,99971.25
2022-11-16T10:12:36.279Z,99974.50
2022-11-16T10:15:35.437Z,99971.00
2022-11-16T10:18:15.421Z,99962.09
2022-11-16T10:21:08.340Z,99968.06
2022-11-16T10:23:49.757Z,99969.44
2022-11-16T10:26:28.295Z,99961.59
2022-11-16T10:29:15.945Z,99963.47
2022-11-16T10:31:56.503Z,99955.94
2022-11-16T10:34:28.079Z,99972.38
2022-11-16T10:37:03.207Z,99965.44
2022-11-16T10:39:34.003Z,99968.16
2022-11-16T10:42:07.874Z,99968.44
2022-11-16T10:44:41.339Z,99974.75
2022-11-16T10:47:16.185Z,99963.16
2022-11-16T10:49:51.364Z,99965.53
2022-11-16T10:52:19.191Z,99965.25
2022-11-16T10:54:46.846Z,99967.13
2022-11-16T10:57:16.308Z,99960.41
2022-11-16T10:59:45.715Z,99951.50
2022-11-16T11:02:29.035Z,99959.06
2022-11-16T11:05:06.348Z,99951.84
2022-11-16T11:07:37.646Z,99951.53
2022-11-16T11:10:06.968Z,99941.88
2022-11-16T11:12:37.912Z,99941.31
2022-11-16T11:15:25.602Z,99946.97
2022-11-16T11:18:20.296Z,99952.19
2022-11-16T11:20:50.318Z,99950.53
2022-11-16T11:23:20.612Z,99948.09
2022-11-16T11:25:54.677Z,99951.59
2022-11-16T11:28:26.174Z,99949.97
2022-11-16T11:30:58.737Z,99944.31
2022-11-16T11:33:28.328Z,99931.38
2022-11-16T11:36:06.106Z,99937.59
2022-11-16T11:38:34.861Z,99931.94
2022-11-16T11:41:05.260Z,99933.00
2022-11-16T11:43:35.159Z,99927.41
2022-11-16T11:46:13.061Z,99925.22
2022-11-16T11:48:49.108Z,99921.97
2022-11-16T11:51:25.123Z,99913.88
2022-11-16T11:53:59.496Z,99904.16
2022-11-16T11:56:30.248Z,99902.84
2022-11-16T11:58:59.655Z,99906.09
2022-11-16T12:01:55.829Z,99902.59
2022-11-16T12:04:48.370Z,99901.78
2022-11-16T12:07:28.721Z,99896.13
2022-11-16T12:10:04.285Z,99889.09
2022-11-16T12:12:44.246Z,99886.41
2022-11-16T12:15:30.743Z,99875.88
2022-11-16T12:18:07.443Z,99872.63
2022-11-16T12:20:44.551Z,99873.72
2022-11-16T12:23:32.592Z,99872.66
2022-11-16T12:26:08.203Z,99873.22
2022-11-16T12:28:51.185Z,99866.81
2022-11-16T12:31:50.907Z,99876.22
2022-11-16T12:34:29.126Z,99869.22
2022-11-16T12:37:05.198Z,99859.75
2022-11-16T12:39:36.304Z,99859.25
2022-11-16T12:42:22.570Z,99849.28
2022-11-16T12:45:06.174Z,99849.28
2022-11-16T12:47:48.784Z,99844.94
2022-11-16T12:50:32.362Z,99846.03
2022-11-16T12:53:20.062Z,99844.13
2022-11-16T12:55:58.709Z,99839.56
2022-11-16T12:58:42.745Z,99843.88
2022-11-16T13:01:18.380Z,99832.28
2022-11-16T13:03:53.596Z,99836.84
2022-11-16T13:06:27.370Z,99830.13
2022-11-16T13:09:02.736Z,99830.13
2022-11-16T13:11:33.497Z,99820.16
2022-11-16T13:14:05.192Z,99823.66
2022-11-16T13:16:32.938Z,99824.22
2022-11-16T13:19:05.108Z,99820.44
2022-11-16T13:21:41.573Z,99822.06
2022-11-16T13:24:24.900Z,99816.13
2022-11-16T13:27:00.291Z,99812.34
2022-11-16T13:29:35.151Z,99805.88
2022-11-16T13:32:09.902Z,99809.13
2022-11-16T13:34:41.159Z,99821.81
2022-11-16T13:37:42.117Z,99814.53
2022-11-16T13:40:14.863Z,99810.75
2022-11-16T13:42:58.422Z,99815.06
2022-11-16T13:45:34.765Z,99813.19
2022-11-16T13:48:05.044Z,99809.94
2022-11-16T13:50:38.404Z,99814.53
2022-11-16T13:56:02.468Z,99805.13
2022-11-16T13:58:31.761Z,99801.72
2022-11-16T14:01:06.016Z,99813.03
2022-11-16T14:03:38.580Z,99809.47
2022-11-16T14:06:46.825Z,99811.09
2022-11-16T14:09:45.245Z,99807.03
2022-11-16T14:12:55.722Z,99806.47
2022-11-16T14:15:25.682Z,99801.34
2022-11-16T14:17:57.605Z,99803.50
2022-11-16T14:20:32.485Z,99793.50
2022-11-16T14:23:14.311Z,99785.72
2022-11-16T14:25:47.094Z,99781.94
2022-11-16T14:28:27.961Z,99776.00
2022-11-16T14:31:07.143Z,99786.78
2022-11-16T14:33:37.352Z,99775.69
2022-11-16T14:36:08.691Z,99777.34
2022-11-16T14:38:39.651Z,99775.72
2022-11-16T14:41:13.344Z,99783.81
2022-11-16T14:43:44.673Z,99779.47
2022-11-16T14:46:22.053Z,99773.28
2022-11-16T14:48:50.558Z,99766.00
2022-11-16T14:51:22.781Z,99757.09
2022-11-16T14:53:54.562Z,99760.06
2022-11-16T14:56:22.697Z,99756.28
2022-11-16T14:58:55.303Z,99750.59
2022-11-16T15:01:25.282Z,99754.66
2022-11-16T15:03:58.038Z,99754.66
2022-11-16T15:06:27.149Z,99744.94
2022-11-16T15:09:00.477Z,99746.84
2022-11-16T15:11:45.300Z,99757.63
2022-11-16T15:14:17.963Z,99756.28
2022-11-16T15:16:50.107Z,99744.41
2022-11-16T15:19:17.801Z,99730.94
2022-11-16T15:21:51.809Z,99716.38
2022-11-16T15:24:31.355Z,99725.53
2022-11-16T15:27:11.339Z,99732.81
2022-11-16T15:29:39.670Z,99732.81
2022-11-16T15:32:08.462Z,99734.69
2022-11-16T15:34:40.193Z,99722.28
2022-11-16T15:37:11.934Z,99717.16
2022-11-16T15:39:41.070Z,99720.66
2022-11-16T15:42:14.858Z,99714.47
2022-11-16T15:44:44.208Z,99703.13
2022-11-16T15:47:14.478Z,99707.44
2022-11-16T15:49:44.087Z,99705.84
2022-11-16T15:52:11.993Z,99703.94
2022-11-16T15:54:57.807Z,99695.84
2022-11-16T15:57:25.989Z,99683.19
2022-11-16T15:59:56.094Z,99688.03
2022-11-16T16:02:25.914Z,99675.63
2022-11-16T16:04:53.599Z,99666.72
2022-11-16T16:07:39.792Z,99656.19
2022-11-16T16:10:25.227Z,99654.56
2022-11-16T16:12:54.427Z,99651.34
2022-11-16T16:15:24.723Z,99652.41
2022-11-16T16:17:53.802Z,99640.81
2022-11-16T16:20:23.722Z,99640.28
2022-11-16T16:22:51.414Z,99643.78
2022-11-16T16:25:31.498Z,99637.84
2022-11-16T16:27:59.233Z,99648.63
2022-11-16T16:30:28.762Z,99644.31
2022-11-16T16:32:56.835Z,99643.50
2022-11-16T16:35:26.216Z,99651.84
2022-11-16T16:37:58.601Z,99642.16
2022-11-16T16:40:27.189Z,99642.16
2022-11-16T16:42:58.076Z,99640.53
2022-11-16T16:45:34.528Z,99640.53
2022-11-16T16:48:02.263Z,99634.31
2022-11-16T16:50:29.972Z,99633.50
2022-11-16T16:52:57.670Z,99625.69
2022-11-16T16:55:25.355Z,99620.31
2022-11-16T16:57:53.996Z,99619.50
2022-11-16T17:00:23.240Z,99619.75
2022-11-16T17:02:51.064Z,99606.28
2022-11-16T17:05:18.878Z,99606.53
2022-11-16T17:07:49.228Z,99608.44
2022-11-16T17:10:17.883Z,99608.44
2022-11-16T17:12:45.523Z,99604.91
2022-11-16T17:15:19.034Z,99594.13
2022-11-16T17:17:48.746Z,99600.59
2022-11-16T17:20:16.964Z,99591.72
2022-11-16T17:22:45.141Z,99589.00
2022-11-16T17:25:13.198Z,99596.28
2022-11-16T17:27:40.903Z,99600.59
2022-11-16T17:30:10.132Z,99594.13
2022-11-16T17:32:37.895Z,99591.72
2022-11-16T17:35:07.411Z,99590.63
2022-11-16T17:37:35.085Z,99593.31
2022-11-16T17:40:02.727Z,99591.72
2022-11-16T17:42:30.399Z,99583.63
2022-11-16T17:44:58.048Z,99585.50
2022-11-16T17:47:25.812Z,99578.78
2022-11-16T17:49:53.732Z,99576.06
2022-11-16T17:52:22.794Z,99577.16
2022-11-16T17:54:50.454Z,99578.22
2022-11-16T17:57:18.313Z,99573.91
2022-11-16T17:59:46.676Z,99572.28
2022-11-16T18:02:14.389Z,99572.56
2022-11-16T18:04:44.622Z,99576.34
2022-11-16T18:07:15.943Z,99576.34
2022-11-16T18:09:44.965Z,99573.09
2022-11-16T18:12:12.607Z,99570.41
2022-11-16T18:14:40.312Z,99575.53
2022-11-16T18:17:07.976Z,99579.84
2022-11-16T18:19:35.633Z,99572.03
2022-11-16T18:22:03.307Z,99569.31
2022-11-16T18:24:31.161Z,99559.06
2022-11-16T18:27:00.161Z,99564.47
2022-11-16T18:29:27.882Z,99570.66
2022-11-16T18:31:55.543Z,99573.91
2022-11-16T18:34:23.197Z,99572.28
2022-11-16T18:36:50.930Z,99577.16
2022-11-16T18:39:18.898Z,99564.22
2022-11-16T18:41:54.508Z,99559.91
2022-11-16T18:44:24.181Z,99562.09
2022-11-16T18:46:51.860Z,99557.53
2022-11-16T18:49:19.687Z,99554.03
2022-11-16T18:51:47.361Z,99555.09
2022-11-16T18:54:15.050Z,99536.44
2022-11-16T18:56:42.726Z,99541.03
2022-11-16T18:59:10.431Z,99527.56
2022-11-16T19:01:39.455Z,99528.09
2022-11-16T19:04:07.558Z,99518.69
2022-11-16T19:06:35.346Z,99519.75
2022-11-16T19:09:04.376Z,99510.59
2022-11-16T19:11:32.098Z,99512.19
2022-11-16T19:14:03.747Z,99508.13
2022-11-16T19:16:32.479Z,99509.75
2022-11-16T19:19:02.342Z,99501.41
2022-11-16T19:21:30.789Z,99501.13
2022-11-16T19:23:58.796Z,99498.72
2022-11-16T19:26:28.576Z,99493.84
2022-11-16T19:28:56.675Z,99483.34
2022-11-16T19:31:25.784Z,99470.13
2022-11-16T19:33:57.633Z,99469.84
2022-11-16T19:36:28.660Z,99458.25
2022-11-16T19:38:56.902Z,99446.13
2022-11-16T19:41:25.989Z,99442.09
2022-11-16T19:43:57.189Z,99428.06
2022-11-16T19:46:25.868Z,99424.84
2022-11-16T19:48:54.102Z,99417.81
2022-11-16T19:51:23.249Z,99401.94
2022-11-16T19:53:52.422Z,99401.66
2022-11-16T19:56:21.997Z,99385.22
2022-11-16T19:58:49.727Z,99378.47
2022-11-16T20:01:19.677Z,99384.94
2022-11-16T20:03:49.386Z,99384.41
2022-11-16T20:06:22.002Z,99380.38
2022-11-16T20:08:52.931Z,99380.09
2022-11-16T20:11:23.224Z,99369.88
2022-11-16T20:13:52.355Z,99363.13
2022-11-16T20:16:23.283Z,99354.22
2022-11-16T20:18:52.888Z,99359.63
2022-11-16T20:21:23.771Z,99346.41
2022-11-16T20:23:53.970Z,99344.00
2022-11-16T20:26:22.804Z,99340.50
2022-11-16T20:28:52.425Z,99330.78
2022-11-16T20:31:21.586Z,99323.53
2022-11-16T20:33:51.521Z,99319.75
2022-11-16T20:36:19.878Z,99310.84
2022-11-16T20:38:47.576Z,99306.00
2022-11-16T20:41:18.366Z,99306.25
2022-11-16T20:43:47.222Z,99310.84
2022-11-16T20:46:16.837Z,99303.03
2022-11-16T20:48:45.797Z,99301.16
2022-11-16T20:51:15.225Z,99301.41
2022-11-16T20:53:42.926Z,99297.38
2022-11-16T20:56:11.678Z,99298.47
2022-11-16T20:58:40.956Z,99292.25
2022-11-16T21:01:11.396Z,99290.38
2022-11-16T21:03:39.289Z,99291.97
2022-11-16T21:06:08.858Z,99291.72
2022-11-16T21:08:37.803Z,99284.97
2022-11-16T21:11:11.120Z,99280.66
2022-11-16T21:13:57.661Z,99270.97
2022-11-16T21:16:25.445Z,99261.28
2022-11-16T21:18:54.443Z,99256.97
2022-11-16T21:21:22.377Z,99249.94
2022-11-16T21:23:52.418Z,99256.44
2022-11-16T21:26:21.909Z,99242.16
2022-11-16T21:28:51.405Z,99234.06
2022-11-16T21:31:20.784Z,99241.06
2022-11-16T21:33:49.118Z,99231.38
2022-11-16T21:36:18.892Z,99218.44
2022-11-16T21:38:46.961Z,99207.66
2022-11-16T21:41:16.745Z,99209.28
2022-11-16T21:43:44.468Z,99202.81
2022-11-16T21:46:15.309Z,99196.88
2022-11-16T21:48:43.257Z,99182.59
2022-11-16T21:51:12.530Z,99179.09
2022-11-16T21:53:40.986Z,99165.63
2022-11-16T21:56:13.556Z,99161.03
2022-11-16T21:58:41.850Z,99148.94
2022-11-16T22:01:11.238Z,99136.53
2022-11-16T22:03:40.382Z,99142.75
2022-11-16T22:06:30.072Z,99132.78
2022-11-16T22:08:57.852Z,99120.91
2022-11-16T22:11:25.681Z,99111.50
2022-11-16T22:13:53.382Z,99100.72
2022-11-16T22:16:23.158Z,99084.03
2022-11-16T22:18:52.480Z,99080.78
2022-11-16T22:21:20.180Z,99084.03
2022-11-16T22:23:47.874Z,99071.63
2022-11-16T22:26:15.593Z,99061.94
2022-11-16T22:28:43.442Z,99046.84
2022-11-16T22:31:12.958Z,99033.66
2022-11-16T22:33:41.410Z,99017.25
2022-11-16T22:36:13.266Z,99013.19
2022-11-16T22:38:41.002Z,99004.31
2022-11-16T22:41:08.670Z,98998.13
2022-11-16T22:43:37.408Z,98988.41
2022-11-16T22:46:06.874Z,98973.34
2022-11-16T22:48:36.399Z,98984.41
2022-11-16T22:51:08.901Z,98968.22
2022-11-16T22:53:38.247Z,98948.56
2022-11-16T22:56:07.899Z,98944.00
2022-11-16T22:58:35.781Z,98939.41
2022-11-16T23:01:03.844Z,98926.75
2022-11-16T23:03:31.718Z,98919.75
2022-11-16T23:05:59.588Z,98913.56
2022-11-16T23:08:27.672Z,98905.47
2022-11-16T23:11:19.154Z,98912.47
2022-11-16T23:14:04.564Z,98901.69
2022-11-16T23:16:32.259Z,98897.69
2022-11-16T23:19:00.249Z,98891.19
2022-11-16T23:21:45.761Z,98872.09
2022-11-16T23:24:32.830Z,98869.38
2022-11-16T23:27:21.071Z,98853.22
2022-11-16T23:29:48.973Z,98848.91
2022-11-16T23:32:16.708Z,98834.63
2022-11-16T23:34:44.370Z,98832.75
2022-11-16T23:37:12.074Z,98820.38
2022-11-16T23:39:39.897Z,98820.38
2022-11-16T23:42:26.747Z,98812.28
2022-11-16T23:44:54.431Z,98797.22
2022-11-16T23:47:22.323Z,98769.75
2022-11-16T23:49:50.033Z,98772.16
2022-11-16T23:52:17.852Z,98752.81
2022-11-16T23:54:45.517Z,98751.19
2022-11-16T23:57:14.553Z,98743.91
2022-11-16T23:59:42.270Z,98739.63
